KBOI/BOI METAR and TAF weather

Enter ICAO airport designator
Station Type Date Time Source
KBOI METAR 2020/11/28 18:53 UTC NOAA

KBOI 281853Z 30004KT 10SM CLR 01/M05 A3040 RMK AO2 SLP315 T00111050


Station Type Date Time Source
KBOI Decoded METAR 2020/11/28 18:53 UTC NOAA

BOISE AIR TERMINAL, ID, United States (KBOI) 43-34N 116-14W 875M
Nov 28, 2020 - 01:53 PM EST / 2020.11.28 1853 UTC
Wind: from the WNW (300 degrees) at 5 MPH (4 KT):0
Visibility: 10 mile(s):0
Sky conditions: clear
Temperature: 34.0 F (1.1 C)
Windchill: 30 F (-1 C):1
Dew Point: 23.0 F (-5.0 C)
Relative Humidity: 63%
Pressure (altimeter): 30.4 in. Hg (1029 hPa)
ob: KBOI 281853Z 30004KT 10SM CLR 01/M05 A3040 RMK AO2 SLP315 T00111050
cycle: 19

Station Type Date Time Source
KBOI TAF 2020/11/28 18:30 UTC NOAA

TAF KBOI 281728Z 2818/2918 VRB03KT P6SM SCT200
FM282000 32005KT P6SM SCT150 BKN200
FM290300 13007KT P6SM SKC

Example: see airport list